createdAt,value
2022-08-26T00:00:55.283Z,7.33
2022-08-26T00:03:59.095Z,8.05
2022-08-26T00:07:01.858Z,7.68
2022-08-26T00:10:06.340Z,7.65
2022-08-26T00:13:10.731Z,7.80
2022-08-26T00:16:14.940Z,8.00
2022-08-26T00:19:21.021Z,7.60
2022-08-26T00:22:24.442Z,8.43
2022-08-26T00:25:27.669Z,7.65
2022-08-26T00:28:30.791Z,7.70
2022-08-26T00:31:33.565Z,7.90
2022-08-26T00:34:36.584Z,8.05
2022-08-26T00:37:40.750Z,7.78
2022-08-26T00:40:48.085Z,7.43
2022-08-26T00:43:51.471Z,7.50
2022-08-26T00:47:01.282Z,8.13
2022-08-26T00:50:11.201Z,7.75
2022-08-26T00:53:25.897Z,8.73
2022-08-26T00:56:56.202Z,8.57
2022-08-26T01:00:01.749Z,8.45
2022-08-26T01:03:05.219Z,8.95
2022-08-26T01:06:09.917Z,8.30
2022-08-26T01:09:16.422Z,7.72
2022-08-26T01:12:22.261Z,9.10
2022-08-26T01:15:38.047Z,7.78
2022-08-26T01:18:43.531Z,8.38
2022-08-26T01:21:57.339Z,8.50
2022-08-26T01:25:03.554Z,8.68
2022-08-26T01:28:10.283Z,8.07
2022-08-26T01:31:15.541Z,8.75
2022-08-26T01:34:23.808Z,8.88
2022-08-26T01:37:33.519Z,7.35
2022-08-26T01:40:39.247Z,7.53
2022-08-26T01:43:51.014Z,8.20
2022-08-26T01:46:55.548Z,9.07
2022-08-26T01:50:01.434Z,8.45
2022-08-26T01:53:15.031Z,9.80
2022-08-26T01:56:18.702Z,7.53
2022-08-26T01:59:24.753Z,7.53
2022-08-26T02:02:29.280Z,8.10
2022-08-26T02:05:32.624Z,8.95
2022-08-26T02:08:44.796Z,7.87
2022-08-26T02:11:48.008Z,8.30
2022-08-26T02:14:56.591Z,8.07
2022-08-26T02:17:59.683Z,8.13
2022-08-26T02:21:02.499Z,8.40
2022-08-26T02:24:19.722Z,8.95
2022-08-26T02:27:25.983Z,8.60
2022-08-26T02:30:32.991Z,8.77
2022-08-26T02:33:35.748Z,9.43
2022-08-26T02:36:39.055Z,9.40
2022-08-26T02:39:43.890Z,9.60
2022-08-26T02:42:46.795Z,9.27
2022-08-26T02:45:49.559Z,9.07
2022-08-26T02:48:53.087Z,8.68
2022-08-26T02:51:56.470Z,8.83
2022-08-26T02:55:00.015Z,8.50
2022-08-26T02:58:03.325Z,8.57
2022-08-26T03:01:06.547Z,8.05
2022-08-26T03:04:11.691Z,8.75
2022-08-26T03:07:16.656Z,7.97
2022-08-26T03:10:20.181Z,8.93
2022-08-26T03:13:23.180Z,8.55
2022-08-26T03:16:26.000Z,8.20
2022-08-26T03:19:35.584Z,8.40
2022-08-26T03:22:39.826Z,8.80
2022-08-26T03:25:42.830Z,8.95
2022-08-26T03:29:04.292Z,7.78
2022-08-26T03:32:07.880Z,8.90
2022-08-26T03:35:11.323Z,8.90
2022-08-26T03:38:14.829Z,9.13
2022-08-26T03:41:18.190Z,8.40
2022-08-26T03:44:21.239Z,8.23
2022-08-26T03:47:23.972Z,8.52
2022-08-26T03:50:27.116Z,8.97
2022-08-26T03:53:29.951Z,9.20
2022-08-26T03:56:34.053Z,9.20
2022-08-26T03:59:37.798Z,9.68
2022-08-26T04:02:46.349Z,9.13
2022-08-26T04:05:52.383Z,9.30
2022-08-26T04:08:56.738Z,9.20
2022-08-26T04:11:59.801Z,9.38
2022-08-26T04:15:02.869Z,8.40
2022-08-26T04:18:05.987Z,9.63
2022-08-26T04:21:09.210Z,9.03
2022-08-26T04:24:16.449Z,10.23
2022-08-26T04:27:20.366Z,10.00
2022-08-26T04:30:23.414Z,9.77
2022-08-26T04:33:33.072Z,9.57
2022-08-26T04:36:37.530Z,9.00
2022-08-26T04:39:41.364Z,9.70
2022-08-26T04:42:44.621Z,9.68
2022-08-26T04:45:47.819Z,9.80
2022-08-26T04:48:52.514Z,9.45
2022-08-26T04:51:55.345Z,10.37
2022-08-26T04:54:58.982Z,10.33
2022-08-26T04:58:01.765Z,10.80
2022-08-26T05:01:05.828Z,10.23
2022-08-26T05:04:08.681Z,9.87
2022-08-26T05:07:11.894Z,10.20
2022-08-26T05:10:14.873Z,9.80
2022-08-26T05:13:21.068Z,10.67
2022-08-26T05:16:23.782Z,10.40
2022-08-26T05:19:27.820Z,10.57
2022-08-26T05:22:30.796Z,10.10
2022-08-26T05:25:42.033Z,10.80
2022-08-26T05:28:45.394Z,9.93
2022-08-26T05:31:53.260Z,10.48
2022-08-26T05:34:58.642Z,10.38
2022-08-26T05:38:02.691Z,10.20
2022-08-26T05:41:15.591Z,9.95
2022-08-26T05:44:21.240Z,10.93
2022-08-26T05:47:26.445Z,11.63
2022-08-26T05:50:30.323Z,11.10
2022-08-26T05:53:33.650Z,11.20
2022-08-26T05:56:38.125Z,14.32
2022-08-26T05:59:40.853Z,14.17
2022-08-26T06:02:48.411Z,12.90
2022-08-26T06:05:51.702Z,13.70
2022-08-26T06:08:55.376Z,14.82
2022-08-26T06:12:01.971Z,15.60
2022-08-26T06:15:05.264Z,14.27
2022-08-26T06:18:08.629Z,14.95
2022-08-26T06:21:30.607Z,15.07
2022-08-26T06:24:52.687Z,15.02
2022-08-26T06:27:55.758Z,15.73
2022-08-26T06:30:59.307Z,14.50
2022-08-26T06:34:10.605Z,15.80
2022-08-26T06:37:14.399Z,14.75
2022-08-26T06:40:17.140Z,14.57
2022-08-26T06:43:25.406Z,15.23
2022-08-26T06:46:29.816Z,15.37
2022-08-26T06:49:32.957Z,14.98
2022-08-26T06:52:35.746Z,14.68
2022-08-26T06:55:46.522Z,14.65
2022-08-26T06:58:52.114Z,14.70
2022-08-26T07:01:55.440Z,13.60
2022-08-26T07:04:58.237Z,13.05
2022-08-26T07:08:01.429Z,13.10
2022-08-26T07:11:08.923Z,12.80
2022-08-26T07:14:12.797Z,13.00
2022-08-26T07:17:16.346Z,12.33
2022-08-26T07:20:20.030Z,12.32
2022-08-26T07:23:22.788Z,12.35
2022-08-26T07:26:28.652Z,12.80
2022-08-26T07:29:34.106Z,13.40
2022-08-26T07:32:38.003Z,12.57
2022-08-26T07:35:41.164Z,12.55
2022-08-26T07:38:45.673Z,11.00
2022-08-26T07:41:48.382Z,11.50
2022-08-26T07:44:52.148Z,12.25
2022-08-26T07:47:55.399Z,11.20
2022-08-26T07:50:59.623Z,11.57
2022-08-26T07:54:02.217Z,12.50
2022-08-26T07:57:05.267Z,11.32
2022-08-26T08:00:16.231Z,10.25
2022-08-26T08:03:20.752Z,9.30
2022-08-26T08:06:27.127Z,10.00
2022-08-26T08:09:31.217Z,10.43
2022-08-26T08:12:34.118Z,10.50
2022-08-26T08:15:37.889Z,10.30
2022-08-26T08:18:41.584Z,10.47
2022-08-26T08:21:45.274Z,9.65
2022-08-26T08:24:49.679Z,9.77
2022-08-26T08:27:55.209Z,10.30
2022-08-26T08:31:00.012Z,9.60
2022-08-26T08:34:03.143Z,9.40
2022-08-26T08:37:08.773Z,7.55
2022-08-26T08:40:18.604Z,8.07
2022-08-26T08:43:24.265Z,8.23
2022-08-26T08:46:30.320Z,7.78
2022-08-26T08:49:35.054Z,8.30
2022-08-26T08:52:41.577Z,8.00
2022-08-26T08:55:57.436Z,7.55
2022-08-26T08:59:18.524Z,7.35
2022-08-26T09:02:51.147Z,7.05
2022-08-26T09:05:55.643Z,7.00
2022-08-26T09:09:00.749Z,7.35
2022-08-26T09:12:11.104Z,7.50
2022-08-26T09:15:26.397Z,7.43
2022-08-26T09:18:55.353Z,7.47
2022-08-26T09:22:02.276Z,8.17
2022-08-26T09:25:12.314Z,8.43
2022-08-26T09:28:24.091Z,9.05
2022-08-26T09:31:36.005Z,8.93
2022-08-26T09:34:54.470Z,8.30
2022-08-26T09:37:58.525Z,8.33
2022-08-26T09:41:19.152Z,8.27
2022-08-26T09:44:22.652Z,8.45
2022-08-26T09:47:31.977Z,8.70
2022-08-26T09:50:55.597Z,7.70
2022-08-26T09:54:01.561Z,8.10
2022-08-26T09:57:20.388Z,7.47
2022-08-26T10:00:29.827Z,7.37
2022-08-26T10:03:37.084Z,7.45
2022-08-26T10:07:03.333Z,7.18
2022-08-26T10:10:12.893Z,7.13
2022-08-26T10:13:43.936Z,7.32
2022-08-26T10:16:50.871Z,6.90
2022-08-26T10:19:59.827Z,6.03
2022-08-26T10:23:14.089Z,6.50
2022-08-26T10:26:22.896Z,5.83
2022-08-26T10:29:39.170Z,6.43
2022-08-26T10:33:03.936Z,5.68
2022-08-26T10:36:42.924Z,6.15
2022-08-26T10:40:11.561Z,6.05
2022-08-26T10:43:41.036Z,5.33
2022-08-26T10:46:58.124Z,6.28
2022-08-26T10:50:03.666Z,6.32
2022-08-26T10:53:25.155Z,6.37
2022-08-26T10:56:54.800Z,6.20
2022-08-26T11:00:27.740Z,5.50
2022-08-26T11:03:48.612Z,5.35
2022-08-26T11:07:31.765Z,5.78
2022-08-26T11:10:44.908Z,5.53
2022-08-26T11:13:56.620Z,5.45
2022-08-26T11:17:00.383Z,5.47
2022-08-26T11:20:09.161Z,5.50
2022-08-26T11:23:28.377Z,5.68
2022-08-26T11:26:56.025Z,4.90
2022-08-26T11:34:12.983Z,5.73
2022-08-26T11:40:30.501Z,5.43
2022-08-26T11:43:34.230Z,5.70
2022-08-26T11:46:37.938Z,5.57
2022-08-26T11:49:42.484Z,5.23
2022-08-26T11:53:02.433Z,5.45
2022-08-26T11:56:09.244Z,5.18
2022-08-26T11:59:15.801Z,5.00
2022-08-26T12:02:19.532Z,6.00
2022-08-26T12:05:30.959Z,5.27
2022-08-26T12:08:34.717Z,5.78
2022-08-26T12:11:42.605Z,5.50
2022-08-26T12:14:46.573Z,5.37
2022-08-26T12:18:03.560Z,5.70
2022-08-26T12:21:22.537Z,5.50
2022-08-26T12:24:28.036Z,4.53
2022-08-26T12:27:44.693Z,5.72
2022-08-26T12:31:06.132Z,5.78
2022-08-26T12:34:18.151Z,4.97
2022-08-26T12:37:22.100Z,5.50
2022-08-26T12:40:29.203Z,5.20
2022-08-26T12:43:42.920Z,5.53
2022-08-26T12:46:49.202Z,4.87
2022-08-26T12:50:38.725Z,5.28
2022-08-26T12:53:44.008Z,5.20
2022-08-26T12:56:47.230Z,5.25
2022-08-26T13:00:15.046Z,5.43
2022-08-26T13:03:35.499Z,5.20
2022-08-26T13:06:38.416Z,5.28
2022-08-26T13:09:41.897Z,5.47
2022-08-26T13:12:48.034Z,4.90
2022-08-26T13:15:51.299Z,5.30
2022-08-26T13:18:58.573Z,5.60
2022-08-26T13:22:01.843Z,5.28
2022-08-26T13:25:04.993Z,5.10
2022-08-26T13:28:08.201Z,5.05
2022-08-26T13:31:12.731Z,5.47
2022-08-26T13:34:19.715Z,5.12
2022-08-26T13:37:34.464Z,5.35
2022-08-26T13:40:37.903Z,5.27
2022-08-26T13:43:40.737Z,5.12
2022-08-26T13:49:49.140Z,4.95
2022-08-26T13:52:52.131Z,5.05
2022-08-26T13:55:54.875Z,4.93
2022-08-26T13:59:00.556Z,5.03
2022-08-26T14:02:04.216Z,5.10
2022-08-26T14:05:09.350Z,5.68
2022-08-26T14:08:12.034Z,5.62
2022-08-26T14:11:16.491Z,4.40
2022-08-26T14:14:19.210Z,4.97
2022-08-26T14:17:24.724Z,4.85
2022-08-26T14:20:29.953Z,4.90
2022-08-26T14:23:34.223Z,5.00
2022-08-26T14:26:37.506Z,4.43
2022-08-26T14:29:41.152Z,4.80
2022-08-26T14:32:48.626Z,4.57
2022-08-26T14:35:52.378Z,4.95
2022-08-26T14:38:57.033Z,5.18
2022-08-26T14:42:00.565Z,4.73
2022-08-26T14:45:07.753Z,4.65
2022-08-26T14:48:11.451Z,4.90
2022-08-26T14:51:14.113Z,4.47
2022-08-26T14:54:18.606Z,4.70
2022-08-26T14:57:21.585Z,4.93
2022-08-26T15:00:27.218Z,4.45
2022-08-26T15:03:29.908Z,4.93
2022-08-26T15:06:34.744Z,4.97
2022-08-26T15:09:38.333Z,5.05
2022-08-26T15:12:42.283Z,4.63
2022-08-26T15:15:47.370Z,4.75
2022-08-26T15:18:51.924Z,4.82
2022-08-26T15:21:54.814Z,4.72
2022-08-26T15:25:00.070Z,4.53
2022-08-26T15:28:03.163Z,4.83
2022-08-26T15:31:07.800Z,4.97
2022-08-26T15:34:16.374Z,4.70
2022-08-26T15:37:21.329Z,5.30
2022-08-26T15:40:26.796Z,5.45
2022-08-26T15:43:30.221Z,4.73
2022-08-26T15:46:33.733Z,4.35
2022-08-26T15:49:36.820Z,4.87
2022-08-26T15:52:41.169Z,4.68
2022-08-26T15:55:45.691Z,4.53
2022-08-26T15:58:49.231Z,4.50
2022-08-26T16:01:53.480Z,4.37
2022-08-26T16:04:56.613Z,4.55
2022-08-26T16:08:04.596Z,4.60
2022-08-26T16:11:08.085Z,4.97
2022-08-26T16:14:10.839Z,4.43
2022-08-26T16:17:14.401Z,4.62
2022-08-26T16:20:17.313Z,4.55
2022-08-26T16:23:21.968Z,4.80
2022-08-26T16:26:32.780Z,4.35
2022-08-26T16:29:38.390Z,4.30
2022-08-26T16:32:41.353Z,4.53
2022-08-26T16:35:45.812Z,4.87
2022-08-26T16:38:53.672Z,4.65
2022-08-26T16:41:57.922Z,4.60
2022-08-26T16:45:00.793Z,5.20
2022-08-26T16:48:05.437Z,4.50
2022-08-26T16:51:13.644Z,5.30
2022-08-26T16:54:16.705Z,4.40
2022-08-26T16:57:19.599Z,4.97
2022-08-26T17:00:33.293Z,5.30
2022-08-26T17:03:36.140Z,5.32
2022-08-26T17:06:39.251Z,5.40
2022-08-26T17:09:43.305Z,5.03
2022-08-26T17:12:46.485Z,8.05
2022-08-26T17:15:54.334Z,9.90
2022-08-26T17:19:02.120Z,8.88
2022-08-26T17:22:05.586Z,8.93
2022-08-26T17:25:15.180Z,8.98
2022-08-26T17:28:17.838Z,8.07
2022-08-26T17:31:21.553Z,5.63
2022-08-26T17:34:24.578Z,5.70
2022-08-26T17:37:28.457Z,5.80
2022-08-26T17:40:31.911Z,5.87
2022-08-26T17:43:35.119Z,6.30
2022-08-26T17:46:39.293Z,6.30
2022-08-26T17:49:42.301Z,4.80
2022-08-26T17:52:46.926Z,10.35
2022-08-26T17:55:50.938Z,7.85
2022-08-26T17:58:56.437Z,8.65
2022-08-26T18:02:00.150Z,8.73
2022-08-26T18:05:06.423Z,8.27
2022-08-26T18:08:09.961Z,7.87
2022-08-26T18:11:17.661Z,7.40
2022-08-26T18:14:20.476Z,6.87
2022-08-26T18:17:23.938Z,6.07
2022-08-26T18:20:26.706Z,6.25
2022-08-26T18:23:31.369Z,6.40
2022-08-26T18:26:37.034Z,5.95
2022-08-26T18:29:45.333Z,6.82
2022-08-26T18:32:49.471Z,5.47
2022-08-26T18:35:52.978Z,5.85
2022-08-26T18:38:56.994Z,5.22
2022-08-26T18:42:00.068Z,6.00
2022-08-26T18:45:04.712Z,5.62
2022-08-26T18:48:08.345Z,5.00
2022-08-26T18:51:17.534Z,4.90
2022-08-26T18:57:28.386Z,6.85
2022-08-26T19:00:33.147Z,7.47
2022-08-26T19:03:36.341Z,7.93
2022-08-26T19:06:40.954Z,8.73
2022-08-26T19:09:43.731Z,7.30
2022-08-26T19:12:51.853Z,8.38
2022-08-26T19:15:55.732Z,8.70
2022-08-26T19:18:59.561Z,8.60
2022-08-26T19:22:02.638Z,8.30
2022-08-26T19:25:06.429Z,7.68
2022-08-26T19:28:09.569Z,8.65
2022-08-26T19:31:13.194Z,7.60
2022-08-26T19:34:20.806Z,7.87
2022-08-26T19:37:24.879Z,8.43
2022-08-26T19:40:28.813Z,7.60
2022-08-26T19:43:32.481Z,7.87
2022-08-26T19:49:45.329Z,8.88
2022-08-26T19:52:48.726Z,7.45
2022-08-26T19:55:52.923Z,8.00
2022-08-26T19:58:58.840Z,7.20
2022-08-26T20:02:05.987Z,7.77
2022-08-26T20:05:12.301Z,7.43
2022-08-26T20:08:16.790Z,7.65
2022-08-26T20:11:26.255Z,7.12
2022-08-26T20:14:30.511Z,7.53
2022-08-26T20:17:33.832Z,7.10
2022-08-26T20:20:55.829Z,7.18
2022-08-26T20:24:17.356Z,8.10
2022-08-26T20:27:22.780Z,8.35
2022-08-26T20:30:25.902Z,7.70
2022-08-26T20:33:28.847Z,7.67
2022-08-26T20:36:32.269Z,7.18
2022-08-26T20:39:35.118Z,6.82
2022-08-26T20:42:38.581Z,6.87
2022-08-26T20:45:41.347Z,7.43
2022-08-26T20:48:44.971Z,6.87
2022-08-26T20:51:51.627Z,7.18
2022-08-26T20:54:54.893Z,7.53
2022-08-26T20:57:57.604Z,7.43
2022-08-26T21:01:06.761Z,6.65
2022-08-26T21:04:15.619Z,6.80
2022-08-26T21:07:21.012Z,6.35
2022-08-26T21:10:24.994Z,6.50
2022-08-26T21:13:39.179Z,6.12
2022-08-26T21:16:51.443Z,5.90
2022-08-26T21:19:54.568Z,6.23
2022-08-26T21:22:57.245Z,6.32
2022-08-26T21:26:09.164Z,6.32
2022-08-26T21:29:13.932Z,6.12
2022-08-26T21:32:17.080Z,6.10
2022-08-26T21:35:19.866Z,6.20
2022-08-26T21:38:22.976Z,6.47
2022-08-26T21:41:27.618Z,6.15
2022-08-26T21:44:32.111Z,6.60
2022-08-26T21:47:34.953Z,6.20
2022-08-26T21:50:38.400Z,6.85
2022-08-26T21:53:41.111Z,6.75
2022-08-26T21:56:46.932Z,6.63
2022-08-26T21:59:49.561Z,6.10
2022-08-26T22:02:52.675Z,6.32
2022-08-26T22:05:55.948Z,6.68
2022-08-26T22:08:59.671Z,7.12
2022-08-26T22:12:02.941Z,6.97
2022-08-26T22:15:06.737Z,6.67
2022-08-26T22:18:09.908Z,6.25
2022-08-26T22:21:20.471Z,6.75
2022-08-26T22:24:25.295Z,7.05
2022-08-26T22:27:28.313Z,7.60
2022-08-26T22:30:31.757Z,6.83
2022-08-26T22:33:34.788Z,7.20
2022-08-26T22:36:43.606Z,7.47
2022-08-26T22:39:46.792Z,7.97
2022-08-26T22:42:57.917Z,6.83
2022-08-26T22:46:02.938Z,7.67
2022-08-26T22:49:06.672Z,7.53
2022-08-26T22:52:09.347Z,7.35
2022-08-26T22:55:12.396Z,7.85
2022-08-26T22:58:17.514Z,7.87
2022-08-26T23:01:20.726Z,7.63
2022-08-26T23:04:23.563Z,7.20
2022-08-26T23:07:26.493Z,7.00
2022-08-26T23:10:29.885Z,7.10
2022-08-26T23:13:32.899Z,7.43
2022-08-26T23:16:39.594Z,7.93
2022-08-26T23:19:42.866Z,6.90
2022-08-26T23:22:48.381Z,7.50
2022-08-26T23:25:51.606Z,6.93
2022-08-26T23:28:55.031Z,7.40
2022-08-26T23:31:58.112Z,7.85
2022-08-26T23:35:01.133Z,7.32
2022-08-26T23:38:09.919Z,7.32
2022-08-26T23:41:14.375Z,7.87
2022-08-26T23:44:20.983Z,7.28
2022-08-26T23:47:23.733Z,7.73
2022-08-26T23:50:48.748Z,7.75
2022-08-26T23:53:51.649Z,8.40
2022-08-26T23:56:56.669Z,8.10
2022-08-26T23:59:59.835Z,8.05
